Hanjin Chongqing — 3EPJ2 — position and weather

sailwx.info

Track history (hours):
 
Tides and Currents Weather Stations Pressure Air Temp Water Temp Dewpoint Dewpoint Depression Visibility Wind Speed Wind Dir Waves Ship Positions

Hanjin Chongqing

Last reported at 2015-Jul-27 00:29 UTC. Time now 2015-Jul-28 10:24 UTC.
Position N 25°55' E 053°25'.

Length 304 m; draft 12 m.

Type: Cargo ship. MMSI: 353957976.

Date/timePositionNaut miles runAvg speedWind from/ knotsBaromVisibWave heightAir tempDewpointWater temp
2015-Jul-27 00:29N 25°55' E 053°25'1718.4
2015-Jul-26 23:33N 25°45' E 053°40'1918.5
2015-Jul-26 22:33N 25°33' E 053°57'1818.4
2015-Jul-26 21:33N 25°25' E 054°15'1918.5
2015-Jul-26 20:34N 25°18' E 054°34'1918.5
2015-Jul-26 19:33N 25°10' E 054°52'1312.7
2015-Jul-26 18:33N 25°01' E 055°03'2 2.3
2015-Jul-26 17:33N 24°59' E 055°04'0 0.0
2015-Jul-26 16:33N 24°59' E 055°04'0 0.0
2015-Jul-26 15:33N 24°59' E 055°04'0 0.0
2015-Jul-26 14:33N 24°59' E 055°04'0 0.0
2015-Jul-26 04:33N 24°59' E 055°04'0 0.0
2015-Jul-26 03:33N 24°59' E 055°04'0 0.0
2015-Jul-26 02:07N 24°59' E 055°04'0 0.1
2015-Jul-26 01:33N 24°59' E 055°04'0 0.0
2015-Jul-26 00:34N 24°59' E 055°04'0 0.0
2015-Jul-25 23:34N 24°59' E 055°04'0 0.0
2015-Jul-25 22:34N 24°59' E 055°04'0 0.0
2015-Jul-25 21:34N 24°59' E 055°04'0 0.0
2015-Jul-25 20:33N 24°59' E 055°04'0 0.0
2015-Jul-25 19:34N 24°59' E 055°04'0 0.0
2015-Jul-25 18:34N 24°59' E 055°04'0 0.0
2015-Jul-25 17:34N 24°59' E 055°04'0 0.0
2015-Jul-25 16:33N 24°59' E 055°04'0 0.0
2015-Jul-25 15:34N 24°59' E 055°04'1 0.6
2015-Jul-25 14:31N 24°59' E 055°03'8 8.8
2015-Jul-25 13:34N 25°06' E 054°57'7 6.7
2015-Jul-25 12:33N 25°12' E 054°53'1313.5
2015-Jul-25 11:33N 25°25' E 054°57'  
2015-Jul-17 16:33N 03°23' E 100°21'3919.5
2015-Jul-17 14:33N 02°58' E 100°51'1918.7
2015-Jul-17 13:33N 02°47' E 101°06'1717.2
2015-Jul-17 12:34N 02°39' E 101°21'16117.6
2015-Jul-17 03:23N 01°12' E 103°37'1315.4
2015-Jul-17 02:33N 01°11' E 103°50'5 4.9
2015-Jul-17 01:33N 01°16' E 103°51'  
Track history (hours):
 
Tides and Currents Weather Stations Pressure Air Temp Water Temp Dewpoint Dewpoint Depression Visibility Wind Speed Wind Dir Waves Ship Positions

Hanjin Chongqing

Last reported at 2015-Jul-27 00:29 UTC. Time now 2015-Jul-28 10:24 UTC.
Position N 25°55' E 053°25'.

Length 304 m; draft 12 m.

Type: Cargo ship. MMSI: 353957976.

Date/timePositionNaut miles runAvg speedWind from/ knotsBaromVisibWave heightAir tempDewpointWater temp
2015-Jul-27 00:29N 25°55' E 053°25'1718.4
2015-Jul-26 23:33N 25°45' E 053°40'1918.5
2015-Jul-26 22:33N 25°33' E 053°57'1818.4
2015-Jul-26 21:33N 25°25' E 054°15'1918.5
2015-Jul-26 20:34N 25°18' E 054°34'1918.5
2015-Jul-26 19:33N 25°10' E 054°52'1312.7
2015-Jul-26 18:33N 25°01' E 055°03'2 2.3
2015-Jul-26 17:33N 24°59' E 055°04'0 0.0
2015-Jul-26 16:33N 24°59' E 055°04'0 0.0
2015-Jul-26 15:33N 24°59' E 055°04'0 0.0
2015-Jul-26 14:33N 24°59' E 055°04'0 0.0
2015-Jul-26 04:33N 24°59' E 055°04'0 0.0
2015-Jul-26 03:33N 24°59' E 055°04'0 0.0
2015-Jul-26 02:07N 24°59' E 055°04'0 0.1
2015-Jul-26 01:33N 24°59' E 055°04'0 0.0
2015-Jul-26 00:34N 24°59' E 055°04'0 0.0
2015-Jul-25 23:34N 24°59' E 055°04'0 0.0
2015-Jul-25 22:34N 24°59' E 055°04'0 0.0
2015-Jul-25 21:34N 24°59' E 055°04'0 0.0
2015-Jul-25 20:33N 24°59' E 055°04'0 0.0
2015-Jul-25 19:34N 24°59' E 055°04'0 0.0
2015-Jul-25 18:34N 24°59' E 055°04'0 0.0
2015-Jul-25 17:34N 24°59' E 055°04'0 0.0
2015-Jul-25 16:33N 24°59' E 055°04'0 0.0
2015-Jul-25 15:34N 24°59' E 055°04'1 0.6
2015-Jul-25 14:31N 24°59' E 055°03'8 8.8
2015-Jul-25 13:34N 25°06' E 054°57'7 6.7
2015-Jul-25 12:33N 25°12' E 054°53'1313.5
2015-Jul-25 11:33N 25°25' E 054°57'  
2015-Jul-17 16:33N 03°23' E 100°21'3919.5
2015-Jul-17 14:33N 02°58' E 100°51'1918.7
2015-Jul-17 13:33N 02°47' E 101°06'1717.2
2015-Jul-17 12:34N 02°39' E 101°21'16117.6
2015-Jul-17 03:23N 01°12' E 103°37'1315.4
2015-Jul-17 02:33N 01°11' E 103°50'5 4.9
2015-Jul-17 01:33N 01°16' E 103°51'  

Dump ship's entire track history